createdAt,value
2023-05-19T00:00:51.320Z,0.4
2023-05-19T00:03:51.287Z,0.5
2023-05-19T00:06:51.291Z,0.32
2023-05-19T00:09:51.234Z,0.26
2023-05-19T00:12:53.183Z,0.21
2023-05-19T00:15:51.249Z,0.28
2023-05-19T00:18:51.325Z,0.25
2023-05-19T00:21:51.239Z,0.24
2023-05-19T00:24:51.277Z,0.36
2023-05-19T00:27:51.299Z,0.37
2023-05-19T00:30:51.265Z,0.44
2023-05-19T00:33:51.314Z,0.39
2023-05-19T00:36:51.279Z,0.44
2023-05-19T00:39:51.352Z,0.38
2023-05-19T00:42:51.339Z,0.5
2023-05-19T00:45:51.234Z,0.43
2023-05-19T00:48:51.286Z,0.33
2023-05-19T00:51:51.333Z,0.36
2023-05-19T00:54:51.268Z,0.32
2023-05-19T00:57:51.330Z,0.44
2023-05-19T01:00:51.308Z,0.5
2023-05-19T01:03:51.521Z,0.73
2023-05-19T01:06:51.358Z,0.72
2023-05-19T01:09:51.312Z,0.69
2023-05-19T01:12:51.332Z,0.54
2023-05-19T01:15:51.304Z,0.44
2023-05-19T01:18:51.352Z,0.39
2023-05-19T01:21:51.274Z,0.4
2023-05-19T01:24:51.290Z,0.3
2023-05-19T01:27:51.337Z,0.38
2023-05-19T01:30:51.330Z,0.44
2023-05-19T01:33:51.390Z,0.37
2023-05-19T01:36:51.357Z,0.29
2023-05-19T01:39:51.379Z,0.41
2023-05-19T01:42:51.326Z,0.37
2023-05-19T01:45:51.337Z,0.44
2023-05-19T01:48:51.436Z,0.44
2023-05-19T01:51:51.373Z,0.46
2023-05-19T01:54:51.334Z,0.35
2023-05-19T01:57:51.388Z,0.45
2023-05-19T02:00:51.409Z,0.44
2023-05-19T02:03:51.480Z,0.48
2023-05-19T02:06:51.356Z,0.48
2023-05-19T02:09:51.364Z,0.37
2023-05-19T02:12:51.407Z,0.38
2023-05-19T02:15:51.392Z,0.34
2023-05-19T02:18:51.363Z,0.55
2023-05-19T02:21:51.397Z,0.49
2023-05-19T02:24:51.435Z,0.54
2023-05-19T02:27:51.366Z,0.53
2023-05-19T02:30:51.405Z,0.47
2023-05-19T02:33:51.347Z,0.41
2023-05-19T02:36:51.372Z,0.25
2023-05-19T02:39:51.361Z,0.2
2023-05-19T02:42:51.339Z,0.34
2023-05-19T02:45:51.377Z,0.15
2023-05-19T02:48:51.406Z,0.27
2023-05-19T02:51:51.461Z,0.25
2023-05-19T02:54:51.415Z,0.22
2023-05-19T02:57:51.439Z,0.17
2023-05-19T03:00:51.392Z,0.26
2023-05-19T03:03:51.508Z,0.28
2023-05-19T03:06:51.463Z,0.31
2023-05-19T03:09:51.466Z,0.27
2023-05-19T03:12:51.492Z,0.32
2023-05-19T03:15:51.419Z,0.44
2023-05-19T03:18:51.451Z,0.39
2023-05-19T03:21:51.407Z,0.43
2023-05-19T03:24:51.481Z,0.17
2023-05-19T03:27:51.448Z,0.24
2023-05-19T03:30:51.490Z,0.25
2023-05-19T03:33:51.459Z,0.31
2023-05-19T03:36:51.466Z,0.27
2023-05-19T03:39:51.489Z,0.19
2023-05-19T03:42:51.444Z,0.16
2023-05-19T03:45:51.452Z,0.27
2023-05-19T03:48:51.462Z,0.31
2023-05-19T03:51:51.456Z,0.16
2023-05-19T03:54:51.465Z,0.12
2023-05-19T03:57:51.488Z,0.33
2023-05-19T04:00:51.459Z,0.05
2023-05-19T04:03:51.450Z,0.17
2023-05-19T04:06:51.474Z,0.2
2023-05-19T04:09:51.511Z,0.1
2023-05-19T04:12:51.519Z,0.18
2023-05-19T04:15:51.456Z,0.17
2023-05-19T04:18:51.566Z,0.03
2023-05-19T04:21:51.444Z,0.06
2023-05-19T04:24:51.493Z,0.03
2023-05-19T04:27:51.500Z,0.11
2023-05-19T04:30:51.592Z,0.19
2023-05-19T04:33:51.550Z,0.09
2023-05-19T04:36:53.327Z,0.27
2023-05-19T04:39:51.520Z,0.21
2023-05-19T04:42:51.549Z,0.34
2023-05-19T04:45:51.564Z,0.33
2023-05-19T04:48:51.506Z,0.26
2023-05-19T04:51:52.298Z,0.2
2023-05-19T04:54:51.539Z,0.32
2023-05-19T04:57:51.486Z,0.48
2023-05-19T05:00:51.487Z,0.4
2023-05-19T05:03:51.641Z,0.44
2023-05-19T05:06:51.730Z,0.15
2023-05-19T05:09:51.565Z,0.29
2023-05-19T05:12:51.541Z,0.31
2023-05-19T05:15:51.538Z,0.28
2023-05-19T05:18:51.545Z,0.17
2023-05-19T05:21:52.204Z,0.13
2023-05-19T05:24:51.586Z,0.15
2023-05-19T05:27:51.492Z,0.22
2023-05-19T05:30:51.596Z,0.23
2023-05-19T05:33:51.536Z,0.29
2023-05-19T05:36:51.514Z,0.25
2023-05-19T05:39:51.527Z,0.28
2023-05-19T05:42:51.585Z,0.64
2023-05-19T05:45:51.578Z,0.49
2023-05-19T05:48:51.516Z,0.37
2023-05-19T05:52:04.781Z,0.39
2023-05-19T05:54:51.561Z,0.21
2023-05-19T05:57:51.560Z,0.37
2023-05-19T06:00:51.582Z,0.3
2023-05-19T06:03:51.624Z,0.18
2023-05-19T06:06:51.545Z,0.28
2023-05-19T06:09:51.538Z,0.31
2023-05-19T06:12:51.638Z,0.26
2023-05-19T06:15:51.543Z,0.48
2023-05-19T06:18:51.593Z,0.42
2023-05-19T06:21:51.596Z,0.3
2023-05-19T06:24:51.585Z,0.51
2023-05-19T06:27:51.577Z,0.37
2023-05-19T06:30:51.603Z,0.36
2023-05-19T06:33:51.622Z,0.3
2023-05-19T06:36:51.647Z,0.43
2023-05-19T06:39:51.601Z,0.24
2023-05-19T06:42:51.618Z,0.42
2023-05-19T06:45:51.605Z,0.35
2023-05-19T06:48:51.641Z,0.79
2023-05-19T06:51:51.629Z,0.88
2023-05-19T06:54:51.617Z,0.7
2023-05-19T06:57:51.649Z,0.9
2023-05-19T07:00:51.605Z,0.53
2023-05-19T07:03:51.631Z,0.71
2023-05-19T07:06:51.603Z,0.82
2023-05-19T07:09:51.670Z,0.81
2023-05-19T07:12:51.693Z,0.67
2023-05-19T07:15:51.710Z,0.56
2023-05-19T07:18:51.673Z,0.45
2023-05-19T07:21:51.617Z,0.68
2023-05-19T07:24:51.661Z,0.79
2023-05-19T07:27:51.716Z,0.54
2023-05-19T07:30:51.680Z,0.68
2023-05-19T07:33:53.733Z,0.82
2023-05-19T07:36:51.624Z,0.64
2023-05-19T07:39:51.710Z,0.77
2023-05-19T07:42:51.720Z,0.99
2023-05-19T07:45:51.711Z,0.72
2023-05-19T07:48:51.649Z,0.64
2023-05-19T07:51:51.714Z,0.66
2023-05-19T07:54:51.695Z,0.66
2023-05-19T07:57:51.642Z,0.43
2023-05-19T08:00:51.650Z,0.58
2023-05-19T08:03:51.818Z,0.45
2023-05-19T08:06:51.657Z,0.79
2023-05-19T08:09:51.742Z,0.39
2023-05-19T08:12:51.741Z,0.41
2023-05-19T08:15:51.696Z,0.64
2023-05-19T08:18:51.829Z,0.66
2023-05-19T08:21:51.701Z,0.63
2023-05-19T08:24:51.819Z,0.77
2023-05-19T08:27:51.675Z,1.03
2023-05-19T08:30:51.704Z,0.81
2023-05-19T08:33:51.696Z,0.61
2023-05-19T08:36:51.698Z,1.34
2023-05-19T08:39:51.713Z,1.2
2023-05-19T08:42:51.823Z,0.86
2023-05-19T08:45:51.733Z,0.62
2023-05-19T08:48:51.690Z,0.84
2023-05-19T08:51:51.744Z,0.95
2023-05-19T08:54:51.741Z,0.99
2023-05-19T08:57:51.778Z,0.95
2023-05-19T09:00:51.753Z,0.76
2023-05-19T09:03:51.859Z,0.84
2023-05-19T09:06:51.810Z,0.78
2023-05-19T09:09:51.778Z,0.93
2023-05-19T09:12:51.754Z,1.15
2023-05-19T09:15:51.713Z,1.22
2023-05-19T09:18:51.795Z,1.09
2023-05-19T09:21:51.727Z,0.68
2023-05-19T09:24:51.781Z,0.6
2023-05-19T09:27:51.779Z,0.81
2023-05-19T09:30:51.810Z,0.58
2023-05-19T09:33:51.757Z,0.65
2023-05-19T09:36:51.777Z,1.06
2023-05-19T09:39:51.809Z,0.94
2023-05-19T09:42:51.783Z,0.5
2023-05-19T09:45:51.736Z,0.68
2023-05-19T09:48:51.756Z,0.85
2023-05-19T09:51:51.797Z,0.94
2023-05-19T09:54:51.807Z,0.62
2023-05-19T09:57:51.776Z,0.69
2023-05-19T10:00:51.800Z,1.03
2023-05-19T10:03:51.761Z,0.71
2023-05-19T10:06:51.764Z,1.01
2023-05-19T10:09:51.788Z,1.13
2023-05-19T10:12:51.806Z,0.73
2023-05-19T10:15:57.823Z,0.68
2023-05-19T10:18:51.830Z,0.73
2023-05-19T10:21:51.808Z,1.08
2023-05-19T10:24:51.899Z,0.84
2023-05-19T10:27:51.857Z,1.05
2023-05-19T10:30:51.790Z,0.55
2023-05-19T10:33:51.829Z,0.81
2023-05-19T10:36:51.797Z,1.17
2023-05-19T10:39:51.840Z,0.86
2023-05-19T10:42:51.820Z,0.57
2023-05-19T10:45:51.872Z,0.99
2023-05-19T10:48:51.857Z,0.83
2023-05-19T10:51:51.813Z,0.9
2023-05-19T10:54:51.831Z,0.74
2023-05-19T10:57:51.864Z,0.96
2023-05-19T11:00:51.857Z,0.51
2023-05-19T11:03:51.883Z,0.41
2023-05-19T11:06:51.906Z,0.53
2023-05-19T11:09:51.826Z,0.71
2023-05-19T11:12:52.073Z,0.94
2023-05-19T11:15:51.873Z,0.42
2023-05-19T11:18:51.950Z,0.56
2023-05-19T11:21:51.868Z,0.71
2023-05-19T11:24:51.853Z,0.53
2023-05-19T11:27:51.947Z,0.68
2023-05-19T11:30:52.257Z,1.02
2023-05-19T11:33:51.860Z,0.57
2023-05-19T11:36:51.862Z,1.13
2023-05-19T11:39:51.899Z,1.09
2023-05-19T11:42:51.925Z,1.11
2023-05-19T11:45:51.948Z,0.88
2023-05-19T11:48:51.878Z,0.89
2023-05-19T11:51:51.910Z,0.6
2023-05-19T11:54:51.866Z,0.87
2023-05-19T11:58:02.679Z,1.31
2023-05-19T12:00:51.896Z,0.9
2023-05-19T12:03:51.999Z,0.76
2023-05-19T12:06:51.963Z,0.74
2023-05-19T12:09:51.860Z,0.83
2023-05-19T12:12:51.912Z,0.74
2023-05-19T12:15:51.946Z,0.96
2023-05-19T12:18:54.375Z,0.55
2023-05-19T12:21:51.901Z,0.48
2023-05-19T12:24:51.949Z,0.58
2023-05-19T12:27:51.966Z,0.7
2023-05-19T12:30:51.890Z,0.52
2023-05-19T12:33:52.504Z,0.58
2023-05-19T12:36:51.922Z,0.75
2023-05-19T12:39:51.929Z,0.84
2023-05-19T12:42:51.924Z,0.73
2023-05-19T12:45:52.002Z,0.51
2023-05-19T12:48:51.949Z,0.38
2023-05-19T12:51:51.898Z,0.6
2023-05-19T12:54:51.941Z,1.04
2023-05-19T12:57:51.934Z,1.07
2023-05-19T13:00:52.018Z,0.94
2023-05-19T13:03:52.079Z,0.66
2023-05-19T13:06:51.980Z,0.71
2023-05-19T13:09:51.987Z,0.73
2023-05-19T13:12:51.992Z,0.82
2023-05-19T13:15:51.986Z,1.01
2023-05-19T13:18:52.015Z,0.51
2023-05-19T13:21:52.032Z,1.16
2023-05-19T13:24:51.993Z,0.77
2023-05-19T13:27:51.940Z,0.76
2023-05-19T13:30:52.043Z,0.46
2023-05-19T13:33:52.018Z,0.65
2023-05-19T13:36:51.954Z,0.61
2023-05-19T13:39:51.970Z,0.49
2023-05-19T13:42:52.013Z,0.79
2023-05-19T13:45:52.127Z,0.52
2023-05-19T13:48:52.031Z,0.43
2023-05-19T13:51:51.961Z,0.57
2023-05-19T13:57:53.081Z,0.33
2023-05-19T14:00:52.072Z,0.75
2023-05-19T14:03:52.123Z,0.54
2023-05-19T14:06:52.015Z,0.72
2023-05-19T14:09:51.986Z,0.57
2023-05-19T14:13:14.444Z,0.36
2023-05-19T14:15:52.054Z,0.67
2023-05-19T14:18:52.032Z,0.46
2023-05-19T14:21:52.015Z,0.74
2023-05-19T14:24:52.016Z,0.86
2023-05-19T14:27:52.053Z,0.62
2023-05-19T14:30:52.066Z,0.8
2023-05-19T14:33:52.062Z,0.43
2023-05-19T14:36:52.049Z,0.7
2023-05-19T14:39:52.017Z,0.64
2023-05-19T14:42:52.106Z,1.15
2023-05-19T14:45:52.061Z,0.77
2023-05-19T14:48:52.033Z,0.67
2023-05-19T14:51:52.060Z,0.98
2023-05-19T14:54:52.098Z,0.81
2023-05-19T14:57:52.047Z,0.87
2023-05-19T15:00:52.099Z,0.68
2023-05-19T15:03:52.063Z,0.73
2023-05-19T15:07:05.634Z,1.18
2023-05-19T15:09:52.118Z,0.91
2023-05-19T15:12:52.116Z,0.96
2023-05-19T15:15:54.758Z,0.84
2023-05-19T15:18:52.118Z,1.02
2023-05-19T15:21:52.129Z,0.88
2023-05-19T15:24:52.069Z,0.73
2023-05-19T15:27:52.067Z,0.59
2023-05-19T15:30:52.112Z,0.58
2023-05-19T15:33:52.050Z,0.39
2023-05-19T15:36:52.083Z,0.4
2023-05-19T15:39:52.096Z,0.63
2023-05-19T15:42:52.102Z,0.67
2023-05-19T15:45:52.215Z,0.67
2023-05-19T15:48:52.099Z,0.7
2023-05-19T15:51:52.139Z,1.26
2023-05-19T15:54:52.198Z,0.57
2023-05-19T15:57:52.195Z,0.72
2023-05-19T16:00:52.141Z,0.37
2023-05-19T16:03:52.173Z,0.61
2023-05-19T16:06:52.112Z,1.02
2023-05-19T16:09:52.107Z,0.96
2023-05-19T16:12:52.120Z,0.82
2023-05-19T16:15:52.140Z,0.96
2023-05-19T16:18:52.137Z,1.02
2023-05-19T16:21:52.143Z,0.8
2023-05-19T16:24:52.216Z,0.6
2023-05-19T16:27:52.195Z,0.61
2023-05-19T16:30:52.166Z,0.75
2023-05-19T16:33:52.147Z,0.69
2023-05-19T16:36:52.148Z,0.81
2023-05-19T16:39:52.206Z,0.66
2023-05-19T16:42:52.244Z,0.28
2023-05-19T16:45:52.156Z,1.02
2023-05-19T16:48:52.177Z,0.76
2023-05-19T16:51:52.165Z,0.57
2023-05-19T16:54:52.226Z,0.77
2023-05-19T16:57:52.227Z,0.44
2023-05-19T17:00:52.168Z,0.69
2023-05-19T17:03:52.180Z,0.31
2023-05-19T17:06:52.205Z,0.26
2023-05-19T17:09:53.560Z,0.59
2023-05-19T17:12:52.198Z,0.96
2023-05-19T17:15:52.193Z,0.84
2023-05-19T17:18:52.139Z,0.81
2023-05-19T17:21:52.216Z,1.15
2023-05-19T17:24:52.225Z,1.05
2023-05-19T17:27:52.194Z,1.01
2023-05-19T17:30:52.204Z,0.69
2023-05-19T17:33:52.213Z,0.45
2023-05-19T17:36:52.237Z,0.45
2023-05-19T17:39:52.234Z,0.67
2023-05-19T17:42:52.283Z,0.48
2023-05-19T17:45:52.259Z,0.43
2023-05-19T17:48:52.270Z,0.23
2023-05-19T17:51:52.245Z,0.15
2023-05-19T17:54:52.226Z,0.32
2023-05-19T17:57:52.194Z,0.16
2023-05-19T18:00:52.246Z,0.24
2023-05-19T18:03:52.342Z,0.16
2023-05-19T18:06:52.333Z,0.33
2023-05-19T18:09:52.276Z,0.2
2023-05-19T18:12:52.286Z,0.13
2023-05-19T18:15:52.273Z,0.21
2023-05-19T18:18:52.282Z,0.06
2023-05-19T18:21:52.220Z,0.12
2023-05-19T18:24:54.110Z,0.06
2023-05-19T18:27:52.395Z,0.1
2023-05-19T18:30:52.261Z,0.11
2023-05-19T18:33:52.271Z,0.17
2023-05-19T18:36:52.209Z,0.13
2023-05-19T18:39:52.333Z,0.07
2023-05-19T18:42:52.326Z,0.11
2023-05-19T18:45:52.286Z,0.15
2023-05-19T18:48:52.322Z,0.15
2023-05-19T18:51:52.293Z,0.19
2023-05-19T18:54:52.277Z,0.15
2023-05-19T18:57:52.265Z,0.22
2023-05-19T19:00:52.307Z,0.17
2023-05-19T19:03:52.307Z,0.16
2023-05-19T19:06:52.332Z,0.1
2023-05-19T19:09:52.302Z,0.09
2023-05-19T19:12:52.264Z,0.05
2023-05-19T19:15:52.351Z,0.08
2023-05-19T19:18:52.333Z,0.03
2023-05-19T19:21:52.306Z,0.12
2023-05-19T19:24:52.278Z,0.34
2023-05-19T19:27:52.289Z,0.17
2023-05-19T19:30:52.333Z,0.2
2023-05-19T19:33:52.410Z,0.29
2023-05-19T19:36:52.324Z,0.36
2023-05-19T19:39:52.393Z,0.25
2023-05-19T19:42:52.305Z,0.14
2023-05-19T19:45:52.361Z,0.17
2023-05-19T19:48:52.299Z,0.32
2023-05-19T19:51:52.372Z,0.13
2023-05-19T19:54:52.337Z,0.19
2023-05-19T19:57:52.307Z,0.14
2023-05-19T20:00:52.379Z,0.08
2023-05-19T20:03:52.390Z,0.05
2023-05-19T20:06:52.410Z,0.14
2023-05-19T20:09:52.344Z,0.36
2023-05-19T20:12:52.337Z,0.36
2023-05-19T20:15:52.446Z,0.32
2023-05-19T20:18:52.381Z,0.25
2023-05-19T20:21:52.340Z,0.01
2023-05-19T20:24:52.320Z,0.13
2023-05-19T20:27:52.445Z,0.09
2023-05-19T20:30:52.380Z,0.02
2023-05-19T20:33:52.379Z,0.06
2023-05-19T20:36:52.354Z,0.02
2023-05-19T20:39:52.330Z,0.07
2023-05-19T20:42:52.402Z,0.02
2023-05-19T20:45:52.447Z,0.03
2023-05-19T20:48:52.381Z,0.02
2023-05-19T20:51:52.340Z,0.12
2023-05-19T20:54:52.632Z,0
2023-05-19T20:57:52.423Z,0.02
2023-05-19T21:00:52.415Z,0.19
2023-05-19T21:03:52.382Z,0.22
2023-05-19T21:06:52.451Z,0.14
2023-05-19T21:09:52.405Z,0.28
2023-05-19T21:12:52.402Z,0.37
2023-05-19T21:15:52.700Z,0.3
2023-05-19T21:18:52.522Z,0.11
2023-05-19T21:21:52.459Z,0.57
2023-05-19T21:24:52.468Z,0.18
2023-05-19T21:27:52.450Z,0.26
2023-05-19T21:30:52.454Z,0.47
2023-05-19T21:33:52.419Z,0.37
2023-05-19T21:36:52.424Z,0.39
2023-05-19T21:39:52.414Z,0.07
2023-05-19T21:42:52.366Z,0.26
2023-05-19T21:45:52.460Z,0.4
2023-05-19T21:48:52.464Z,0.35
2023-05-19T21:51:52.459Z,0.3
2023-05-19T21:54:52.474Z,0.45
2023-05-19T21:57:52.389Z,0.32
2023-05-19T22:00:52.486Z,0.22
2023-05-19T22:03:52.493Z,0.32
2023-05-19T22:06:52.499Z,0.22
2023-05-19T22:09:52.425Z,0.21
2023-05-19T22:12:52.509Z,0.09
2023-05-19T22:15:52.508Z,0.12
2023-05-19T22:18:52.485Z,0.02
2023-05-19T22:22:01.675Z,0.11
2023-05-19T22:24:52.469Z,0.05
2023-05-19T22:27:52.457Z,0
2023-05-19T22:30:52.509Z,0.11
2023-05-19T22:33:52.522Z,0.04
2023-05-19T22:36:52.505Z,0.13
2023-05-19T22:39:52.501Z,0.27
2023-05-19T22:42:56.298Z,0.43
2023-05-19T22:45:52.448Z,0.28
2023-05-19T22:48:52.506Z,0.29
2023-05-19T22:51:52.498Z,0.23
2023-05-19T22:54:52.480Z,0.28
2023-05-19T22:57:52.507Z,0.28
2023-05-19T23:00:52.487Z,0.6
2023-05-19T23:03:52.546Z,0.41
2023-05-19T23:06:52.515Z,0.28
2023-05-19T23:09:52.493Z,0.71
2023-05-19T23:12:52.468Z,0.59
2023-05-19T23:15:52.542Z,0.31
2023-05-19T23:18:52.579Z,0.58
2023-05-19T23:21:52.566Z,0.66
2023-05-19T23:24:52.557Z,0.35
2023-05-19T23:27:52.561Z,0.45
2023-05-19T23:30:52.545Z,0.21
2023-05-19T23:33:52.549Z,0.19
2023-05-19T23:36:52.519Z,0.19
2023-05-19T23:39:52.517Z,0.2
2023-05-19T23:42:52.539Z,0.27
2023-05-19T23:45:52.625Z,0.23
2023-05-19T23:48:52.594Z,0.01
2023-05-19T23:51:52.563Z,0.04
2023-05-19T23:54:52.526Z,0.02
2023-05-19T23:57:52.558Z,0
